sensor_id;sensor_type;location;lat;lon;timestamp;temperature;humidity
69393;SHT31;56582;44.624;20.378;2022-10-28T00:01:08;18.21;69.86
69393;SHT31;56582;44.624;20.378;2022-10-28T00:03:38;18.09;70.09
69393;SHT31;56582;44.624;20.378;2022-10-28T00:06:06;17.88;70.70
69393;SHT31;56582;44.624;20.378;2022-10-28T00:08:32;17.99;70.96
69393;SHT31;56582;44.624;20.378;2022-10-28T00:11:03;18.06;70.66
69393;SHT31;56582;44.624;20.378;2022-10-28T00:13:29;18.09;70.52
69393;SHT31;56582;44.624;20.378;2022-10-28T00:15:55;18.16;70.44
69393;SHT31;56582;44.624;20.378;2022-10-28T00:18:20;18.05;70.68
69393;SHT31;56582;44.624;20.378;2022-10-28T00:20:45;18.12;70.90
69393;SHT31;56582;44.624;20.378;2022-10-28T00:23:11;18.18;70.79
69393;SHT31;56582;44.624;20.378;2022-10-28T00:25:36;18.19;70.39
69393;SHT31;56582;44.624;20.378;2022-10-28T00:28:02;18.22;70.24
69393;SHT31;56582;44.624;20.378;2022-10-28T00:30:27;18.25;70.21
69393;SHT31;56582;44.624;20.378;2022-10-28T00:32:53;18.26;69.97
69393;SHT31;56582;44.624;20.378;2022-10-28T00:35:18;18.26;70.05
69393;SHT31;56582;44.624;20.378;2022-10-28T00:37:44;18.29;69.92
69393;SHT31;56582;44.624;20.378;2022-10-28T00:40:09;18.28;69.96
69393;SHT31;56582;44.624;20.378;2022-10-28T00:42:35;18.30;69.99
69393;SHT31;56582;44.624;20.378;2022-10-28T00:45:01;18.28;70.14
69393;SHT31;56582;44.624;20.378;2022-10-28T00:47:48;18.32;69.76
69393;SHT31;56582;44.624;20.378;2022-10-28T00:53:03;18.35;69.47
69393;SHT31;56582;44.624;20.378;2022-10-28T00:55:30;18.37;69.76
69393;SHT31;56582;44.624;20.378;2022-10-28T00:57:58;18.33;69.51
69393;SHT31;56582;44.624;20.378;2022-10-28T01:00:25;18.28;70.27
69393;SHT31;56582;44.624;20.378;2022-10-28T01:02:51;18.30;70.30
69393;SHT31;56582;44.624;20.378;2022-10-28T01:05:20;18.19;69.79
69393;SHT31;56582;44.624;20.378;2022-10-28T01:07:47;18.12;70.46
69393;SHT31;56582;44.624;20.378;2022-10-28T01:10:14;18.13;70.40
69393;SHT31;56582;44.624;20.378;2022-10-28T01:15:40;18.15;70.23
69393;SHT31;56582;44.624;20.378;2022-10-28T01:26:35;18.15;70.30
69393;SHT31;56582;44.624;20.378;2022-10-28T01:29:39;18.15;70.51
69393;SHT31;56582;44.624;20.378;2022-10-28T01:32:22;18.19;71.75
69393;SHT31;56582;44.624;20.378;2022-10-28T01:35:13;18.13;71.49
69393;SHT31;56582;44.624;20.378;2022-10-28T01:40:33;18.09;70.54
69393;SHT31;56582;44.624;20.378;2022-10-28T01:43:09;18.05;70.15
69393;SHT31;56582;44.624;20.378;2022-10-28T01:45:46;18.09;69.72
69393;SHT31;56582;44.624;20.378;2022-10-28T01:48:18;18.09;69.77
69393;SHT31;56582;44.624;20.378;2022-10-28T01:51:13;18.10;69.45
69393;SHT31;56582;44.624;20.378;2022-10-28T01:53:43;18.04;69.68
69393;SHT31;56582;44.624;20.378;2022-10-28T01:56:13;18.04;69.61
69393;SHT31;56582;44.624;20.378;2022-10-28T01:58:44;18.08;69.41
69393;SHT31;56582;44.624;20.378;2022-10-28T02:01:10;17.94;69.97
69393;SHT31;56582;44.624;20.378;2022-10-28T02:03:36;17.88;70.21
69393;SHT31;56582;44.624;20.378;2022-10-28T02:06:04;17.85;70.07
69393;SHT31;56582;44.624;20.378;2022-10-28T02:08:58;17.85;69.81
69393;SHT31;56582;44.624;20.378;2022-10-28T02:19:42;17.85;71.12
69393;SHT31;56582;44.624;20.378;2022-10-28T02:22:19;17.88;71.29
69393;SHT31;56582;44.624;20.378;2022-10-28T02:27:55;17.87;71.17
69393;SHT31;56582;44.624;20.378;2022-10-28T02:30:31;17.84;71.00
69393;SHT31;56582;44.624;20.378;2022-10-28T02:33:01;17.87;70.68
69393;SHT31;56582;44.624;20.378;2022-10-28T02:35:36;17.88;70.53
69393;SHT31;56582;44.624;20.378;2022-10-28T02:38:10;17.91;70.45
69393;SHT31;56582;44.624;20.378;2022-10-28T02:40:39;18.01;70.15
69393;SHT31;56582;44.624;20.378;2022-10-28T02:43:07;18.02;70.16
69393;SHT31;56582;44.624;20.378;2022-10-28T02:45:39;18.01;70.19
69393;SHT31;56582;44.624;20.378;2022-10-28T02:48:08;17.91;70.39
69393;SHT31;56582;44.624;20.378;2022-10-28T02:50:37;17.87;70.55
69393;SHT31;56582;44.624;20.378;2022-10-28T02:53:14;17.88;70.80
69393;SHT31;56582;44.624;20.378;2022-10-28T02:55:43;17.91;70.98
69393;SHT31;56582;44.624;20.378;2022-10-28T02:58:09;17.91;70.91
69393;SHT31;56582;44.624;20.378;2022-10-28T03:00:35;17.92;71.01
69393;SHT31;56582;44.624;20.378;2022-10-28T03:03:01;17.94;70.53
69393;SHT31;56582;44.624;20.378;2022-10-28T03:05:26;17.87;70.20
69393;SHT31;56582;44.624;20.378;2022-10-28T03:07:52;17.92;70.32
69393;SHT31;56582;44.624;20.378;2022-10-28T03:10:17;17.91;70.06
69393;SHT31;56582;44.624;20.378;2022-10-28T03:12:42;17.95;69.82
69393;SHT31;56582;44.624;20.378;2022-10-28T03:15:08;17.91;69.98
69393;SHT31;56582;44.624;20.378;2022-10-28T03:17:34;17.87;70.08
69393;SHT31;56582;44.624;20.378;2022-10-28T03:19:59;17.81;71.13
69393;SHT31;56582;44.624;20.378;2022-10-28T03:22:25;17.74;71.10
69393;SHT31;56582;44.624;20.378;2022-10-28T03:24:50;17.51;72.22
69393;SHT31;56582;44.624;20.378;2022-10-28T03:27:15;17.41;72.96
69393;SHT31;56582;44.624;20.378;2022-10-28T03:29:41;17.47;73.09
69393;SHT31;56582;44.624;20.378;2022-10-28T03:32:06;17.41;72.43
69393;SHT31;56582;44.624;20.378;2022-10-28T03:34:32;16.81;67.51
69393;SHT31;56582;44.624;20.378;2022-10-28T03:36:57;15.94;69.71
69393;SHT31;56582;44.624;20.378;2022-10-28T03:39:23;15.51;70.57
69393;SHT31;56582;44.624;20.378;2022-10-28T03:41:48;15.36;71.11
69393;SHT31;56582;44.624;20.378;2022-10-28T03:44:13;15.01;72.03
69393;SHT31;56582;44.624;20.378;2022-10-28T03:46:39;14.73;72.52
69393;SHT31;56582;44.624;20.378;2022-10-28T03:49:04;14.65;72.83
69393;SHT31;56582;44.624;20.378;2022-10-28T03:51:30;14.60;72.69
69393;SHT31;56582;44.624;20.378;2022-10-28T03:53:55;14.73;72.56
69393;SHT31;56582;44.624;20.378;2022-10-28T03:56:20;14.67;72.58
69393;SHT31;56582;44.624;20.378;2022-10-28T03:58:47;14.53;72.87
69393;SHT31;56582;44.624;20.378;2022-10-28T04:01:12;14.22;73.84
69393;SHT31;56582;44.624;20.378;2022-10-28T04:03:38;13.87;75.21
69393;SHT31;56582;44.624;20.378;2022-10-28T04:06:04;14.01;74.83
69393;SHT31;56582;44.624;20.378;2022-10-28T04:08:29;14.17;74.47
69393;SHT31;56582;44.624;20.378;2022-10-28T04:10:55;14.18;74.23
69393;SHT31;56582;44.624;20.378;2022-10-28T04:13:20;14.22;83.64
69393;SHT31;56582;44.624;20.378;2022-10-28T04:15:45;14.15;85.11
69393;SHT31;56582;44.624;20.378;2022-10-28T04:18:11;13.97;82.03
69393;SHT31;56582;44.624;20.378;2022-10-28T04:20:37;13.92;77.57
69393;SHT31;56582;44.624;20.378;2022-10-28T04:23:02;13.85;78.93
69393;SHT31;56582;44.624;20.378;2022-10-28T04:25:28;13.77;78.07
69393;SHT31;56582;44.624;20.378;2022-10-28T04:27:53;13.42;79.89
69393;SHT31;56582;44.624;20.378;2022-10-28T04:30:19;13.51;78.65
69393;SHT31;56582;44.624;20.378;2022-10-28T04:32:45;13.75;83.60
69393;SHT31;56582;44.624;20.378;2022-10-28T04:35:11;14.15;86.89
69393;SHT31;56582;44.624;20.378;2022-10-28T04:37:38;14.40;84.50
69393;SHT31;56582;44.624;20.378;2022-10-28T04:40:04;14.57;82.69
69393;SHT31;56582;44.624;20.378;2022-10-28T04:42:30;14.69;81.58
69393;SHT31;56582;44.624;20.378;2022-10-28T04:44:55;14.81;80.44
69393;SHT31;56582;44.624;20.378;2022-10-28T04:47:20;14.86;80.40
69393;SHT31;56582;44.624;20.378;2022-10-28T04:49:46;14.98;79.96
69393;SHT31;56582;44.624;20.378;2022-10-28T04:52:11;15.04;79.54
69393;SHT31;56582;44.624;20.378;2022-10-28T04:54:37;15.08;78.50
69393;SHT31;56582;44.624;20.378;2022-10-28T04:57:03;15.11;78.84
69393;SHT31;56582;44.624;20.378;2022-10-28T04:59:28;15.15;78.08
69393;SHT31;56582;44.624;20.378;2022-10-28T05:01:53;15.18;76.53
69393;SHT31;56582;44.624;20.378;2022-10-28T05:04:19;15.18;76.27
69393;SHT31;56582;44.624;20.378;2022-10-28T05:06:44;15.11;75.85
69393;SHT31;56582;44.624;20.378;2022-10-28T05:09:10;15.10;77.19
69393;SHT31;56582;44.624;20.378;2022-10-28T05:11:36;15.07;76.52
69393;SHT31;56582;44.624;20.378;2022-10-28T05:14:01;14.84;73.99
69393;SHT31;56582;44.624;20.378;2022-10-28T05:16:26;14.49;75.85
69393;SHT31;56582;44.624;20.378;2022-10-28T05:18:52;14.33;76.95
69393;SHT31;56582;44.624;20.378;2022-10-28T05:21:17;14.45;78.73
69393;SHT31;56582;44.624;20.378;2022-10-28T05:23:43;14.73;78.93
69393;SHT31;56582;44.624;20.378;2022-10-28T05:26:08;14.90;77.77
69393;SHT31;56582;44.624;20.378;2022-10-28T05:28:34;14.93;75.95
69393;SHT31;56582;44.624;20.378;2022-10-28T05:30:59;15.03;77.02
69393;SHT31;56582;44.624;20.378;2022-10-28T05:33:24;14.96;75.93
69393;SHT31;56582;44.624;20.378;2022-10-28T05:35:51;14.81;75.70
69393;SHT31;56582;44.624;20.378;2022-10-28T05:38:16;15.00;77.25
69393;SHT31;56582;44.624;20.378;2022-10-28T05:40:42;15.04;77.20
69393;SHT31;56582;44.624;20.378;2022-10-28T05:43:08;15.08;75.85
69393;SHT31;56582;44.624;20.378;2022-10-28T05:45:34;15.10;76.25
69393;SHT31;56582;44.624;20.378;2022-10-28T05:48:00;14.93;75.76
69393;SHT31;56582;44.624;20.378;2022-10-28T05:50:26;15.06;76.47
69393;SHT31;56582;44.624;20.378;2022-10-28T05:52:53;15.15;75.91
69393;SHT31;56582;44.624;20.378;2022-10-28T05:55:20;15.06;75.89
69393;SHT31;56582;44.624;20.378;2022-10-28T05:57:49;14.79;76.34
69393;SHT31;56582;44.624;20.378;2022-10-28T06:00:17;14.98;76.77
69393;SHT31;56582;44.624;20.378;2022-10-28T06:02:42;15.15;76.64
69393;SHT31;56582;44.624;20.378;2022-10-28T06:05:09;15.24;76.01
69393;SHT31;56582;44.624;20.378;2022-10-28T06:07:35;15.21;76.33
69393;SHT31;56582;44.624;20.378;2022-10-28T06:10:01;15.24;75.48
69393;SHT31;56582;44.624;20.378;2022-10-28T06:12:27;15.04;75.16
69393;SHT31;56582;44.624;20.378;2022-10-28T06:14:52;15.03;75.85
69393;SHT31;56582;44.624;20.378;2022-10-28T06:17:18;15.07;74.37
69393;SHT31;56582;44.624;20.378;2022-10-28T06:19:43;15.18;75.53
69393;SHT31;56582;44.624;20.378;2022-10-28T06:22:09;15.36;75.41
69393;SHT31;56582;44.624;20.378;2022-10-28T06:24:34;15.36;74.56
69393;SHT31;56582;44.624;20.378;2022-10-28T06:27:00;15.35;73.20
69393;SHT31;56582;44.624;20.378;2022-10-28T06:29:25;15.35;74.23
69393;SHT31;56582;44.624;20.378;2022-10-28T06:31:52;15.58;73.20
69393;SHT31;56582;44.624;20.378;2022-10-28T06:34:17;15.59;73.48
69393;SHT31;56582;44.624;20.378;2022-10-28T06:36:43;15.31;72.53
69393;SHT31;56582;44.624;20.378;2022-10-28T06:39:08;15.54;74.36
69393;SHT31;56582;44.624;20.378;2022-10-28T06:41:34;15.73;73.65
69393;SHT31;56582;44.624;20.378;2022-10-28T06:43:59;15.63;72.21
69393;SHT31;56582;44.624;20.378;2022-10-28T06:46:25;15.59;73.12
69393;SHT31;56582;44.624;20.378;2022-10-28T06:48:53;15.70;73.78
69393;SHT31;56582;44.624;20.378;2022-10-28T06:51:18;15.69;72.15
69393;SHT31;56582;44.624;20.378;2022-10-28T06:53:48;15.58;72.90
69393;SHT31;56582;44.624;20.378;2022-10-28T06:56:14;15.49;73.47
69393;SHT31;56582;44.624;20.378;2022-10-28T06:58:39;15.54;72.97
69393;SHT31;56582;44.624;20.378;2022-10-28T07:01:05;15.32;73.31
69393;SHT31;56582;44.624;20.378;2022-10-28T07:03:30;15.30;72.76
69393;SHT31;56582;44.624;20.378;2022-10-28T07:05:57;15.42;73.17
69393;SHT31;56582;44.624;20.378;2022-10-28T07:08:22;15.07;73.02
69393;SHT31;56582;44.624;20.378;2022-10-28T07:10:55;15.15;74.14
69393;SHT31;56582;44.624;20.378;2022-10-28T07:13:21;15.24;73.39
69393;SHT31;56582;44.624;20.378;2022-10-28T07:15:51;15.63;72.91
69393;SHT31;56582;44.624;20.378;2022-10-28T07:18:17;15.56;73.35
69393;SHT31;56582;44.624;20.378;2022-10-28T07:20:42;15.38;73.21
69393;SHT31;56582;44.624;20.378;2022-10-28T07:23:07;15.72;74.26
69393;SHT31;56582;44.624;20.378;2022-10-28T07:25:33;15.69;73.19
69393;SHT31;56582;44.624;20.378;2022-10-28T07:27:59;15.79;73.93
69393;SHT31;56582;44.624;20.378;2022-10-28T07:30:26;15.75;73.59
69393;SHT31;56582;44.624;20.378;2022-10-28T07:32:51;15.94;74.41
69393;SHT31;56582;44.624;20.378;2022-10-28T07:35:17;16.20;73.32
69393;SHT31;56582;44.624;20.378;2022-10-28T07:37:42;16.40;73.59
69393;SHT31;56582;44.624;20.378;2022-10-28T07:40:08;16.57;73.52
69393;SHT31;56582;44.624;20.378;2022-10-28T07:42:33;16.76;71.63
69393;SHT31;56582;44.624;20.378;2022-10-28T07:44:59;16.86;74.34
69393;SHT31;56582;44.624;20.378;2022-10-28T07:47:25;16.96;72.92
69393;SHT31;56582;44.624;20.378;2022-10-28T07:49:50;17.06;73.18
69393;SHT31;56582;44.624;20.378;2022-10-28T07:52:16;17.29;71.35
69393;SHT31;56582;44.624;20.378;2022-10-28T07:54:41;17.30;72.35
69393;SHT31;56582;44.624;20.378;2022-10-28T07:57:07;17.36;72.12
69393;SHT31;56582;44.624;20.378;2022-10-28T07:59:32;17.37;70.68
69393;SHT31;56582;44.624;20.378;2022-10-28T08:01:58;17.51;69.63
69393;SHT31;56582;44.624;20.378;2022-10-28T08:04:23;17.44;70.12
69393;SHT31;56582;44.624;20.378;2022-10-28T08:06:49;17.33;70.01
69393;SHT31;56582;44.624;20.378;2022-10-28T08:09:15;17.29;69.86
69393;SHT31;56582;44.624;20.378;2022-10-28T08:11:40;17.39;70.52
69393;SHT31;56582;44.624;20.378;2022-10-28T08:14:06;17.29;69.92
69393;SHT31;56582;44.624;20.378;2022-10-28T08:16:32;17.34;70.92
69393;SHT31;56582;44.624;20.378;2022-10-28T08:18:57;17.63;69.67
69393;SHT31;56582;44.624;20.378;2022-10-28T08:21:23;17.78;70.93
69393;SHT31;56582;44.624;20.378;2022-10-28T08:23:49;17.77;69.83
69393;SHT31;56582;44.624;20.378;2022-10-28T08:26:15;18.01;69.29
69393;SHT31;56582;44.624;20.378;2022-10-28T08:28:41;18.18;68.70
69393;SHT31;56582;44.624;20.378;2022-10-28T08:31:07;18.28;69.55
69393;SHT31;56582;44.624;20.378;2022-10-28T08:33:41;18.18;69.43
69393;SHT31;56582;44.624;20.378;2022-10-28T08:36:10;18.09;69.97
69393;SHT31;56582;44.624;20.378;2022-10-28T08:38:36;18.24;70.16
69393;SHT31;56582;44.624;20.378;2022-10-28T08:48:47;18.59;69.45
69393;SHT31;56582;44.624;20.378;2022-10-28T08:51:16;18.73;69.40
69393;SHT31;56582;44.624;20.378;2022-10-28T08:53:54;18.86;69.68
69393;SHT31;56582;44.624;20.378;2022-10-28T08:56:39;18.76;68.78
69393;SHT31;56582;44.624;20.378;2022-10-28T08:59:12;18.77;68.74
69393;SHT31;56582;44.624;20.378;2022-10-28T09:06:56;18.88;68.92
69393;SHT31;56582;44.624;20.378;2022-10-28T09:09:22;18.73;69.28
69393;SHT31;56582;44.624;20.378;2022-10-28T09:14:43;18.67;69.39
69393;SHT31;56582;44.624;20.378;2022-10-28T09:19:51;19.18;69.02
69393;SHT31;56582;44.624;20.378;2022-10-28T09:22:46;19.12;68.64
69393;SHT31;56582;44.624;20.378;2022-10-28T09:36:02;19.36;69.05
69393;SHT31;56582;44.624;20.378;2022-10-28T09:38:32;19.29;69.17
69393;SHT31;56582;44.624;20.378;2022-10-28T09:43:32;19.70;67.90
69393;SHT31;56582;44.624;20.378;2022-10-28T09:46:17;19.51;68.59
69393;SHT31;56582;44.624;20.378;2022-10-28T09:48:48;19.41;68.90
69393;SHT31;56582;44.624;20.378;2022-10-28T09:54:10;19.31;69.44
69393;SHT31;56582;44.624;20.378;2022-10-28T09:56:36;19.25;70.24
69393;SHT31;56582;44.624;20.378;2022-10-28T09:59:02;19.39;69.86
69393;SHT31;56582;44.624;20.378;2022-10-28T10:01:33;19.66;69.00
69393;SHT31;56582;44.624;20.378;2022-10-28T10:03:59;19.73;68.53
69393;SHT31;56582;44.624;20.378;2022-10-28T10:06:28;19.52;69.86
69393;SHT31;56582;44.624;20.378;2022-10-28T10:08:56;19.66;69.69
69393;SHT31;56582;44.624;20.378;2022-10-28T10:11:42;19.79;70.63
69393;SHT31;56582;44.624;20.378;2022-10-28T10:14:11;19.63;69.88
69393;SHT31;56582;44.624;20.378;2022-10-28T10:16:46;19.70;69.75
69393;SHT31;56582;44.624;20.378;2022-10-28T10:19:13;19.79;69.47
69393;SHT31;56582;44.624;20.378;2022-10-28T10:21:47;19.42;70.33
69393;SHT31;56582;44.624;20.378;2022-10-28T10:24:33;19.67;69.76
69393;SHT31;56582;44.624;20.378;2022-10-28T10:27:03;19.76;69.52
69393;SHT31;56582;44.624;20.378;2022-10-28T10:29:43;19.65;69.66
69393;SHT31;56582;44.624;20.378;2022-10-28T10:32:16;19.59;70.39
69393;SHT31;56582;44.624;20.378;2022-10-28T10:34:44;19.89;69.78
69393;SHT31;56582;44.624;20.378;2022-10-28T10:37:19;20.18;67.88
69393;SHT31;56582;44.624;20.378;2022-10-28T10:42:25;20.41;69.16
69393;SHT31;56582;44.624;20.378;2022-10-28T10:44:59;20.24;69.37
69393;SHT31;56582;44.624;20.378;2022-10-28T10:47:25;20.21;69.10
69393;SHT31;56582;44.624;20.378;2022-10-28T10:49:51;20.37;68.43
69393;SHT31;56582;44.624;20.378;2022-10-28T10:52:19;20.47;69.92
69393;SHT31;56582;44.624;20.378;2022-10-28T10:54:55;20.72;68.36
69393;SHT31;56582;44.624;20.378;2022-10-28T10:57:23;20.68;67.74
69393;SHT31;56582;44.624;20.378;2022-10-28T10:59:52;20.83;67.54
69393;SHT31;56582;44.624;20.378;2022-10-28T11:02:38;20.78;67.45
69393;SHT31;56582;44.624;20.378;2022-10-28T11:05:10;20.90;67.13
69393;SHT31;56582;44.624;20.378;2022-10-28T11:07:37;21.03;67.25
69393;SHT31;56582;44.624;20.378;2022-10-28T11:10:05;20.98;67.87
69393;SHT31;56582;44.624;20.378;2022-10-28T11:12:33;21.20;66.36
69393;SHT31;56582;44.624;20.378;2022-10-28T11:15:18;21.22;67.54
69393;SHT31;56582;44.624;20.378;2022-10-28T11:18:00;20.93;65.56
69393;SHT31;56582;44.624;20.378;2022-10-28T11:20:34;20.78;66.23
69393;SHT31;56582;44.624;20.378;2022-10-28T11:25:48;20.42;66.43
69393;SHT31;56582;44.624;20.378;2022-10-28T11:36:30;20.90;65.67
69393;SHT31;56582;44.624;20.378;2022-10-28T12:22:24;21.24;66.45
69393;SHT31;56582;44.624;20.378;2022-10-28T12:24:52;21.07;66.54
69393;SHT31;56582;44.624;20.378;2022-10-28T12:27:23;21.24;65.79
69393;SHT31;56582;44.624;20.378;2022-10-28T12:29:58;20.64;67.65
69393;SHT31;56582;44.624;20.378;2022-10-28T12:32:28;20.53;68.13
69393;SHT31;56582;44.624;20.378;2022-10-28T12:35:20;20.73;67.50
69393;SHT31;56582;44.624;20.378;2022-10-28T12:40:18;20.56;68.27
69393;SHT31;56582;44.624;20.378;2022-10-28T12:42:55;20.58;68.40
69393;SHT31;56582;44.624;20.378;2022-10-28T12:45:21;20.69;68.29
69393;SHT31;56582;44.624;20.378;2022-10-28T12:48:09;20.52;68.88
69393;SHT31;56582;44.624;20.378;2022-10-28T12:53:29;20.56;68.14
69393;SHT31;56582;44.624;20.378;2022-10-28T12:55:58;20.31;68.66
69393;SHT31;56582;44.624;20.378;2022-10-28T13:01:17;20.17;69.14
69393;SHT31;56582;44.624;20.378;2022-10-28T13:03:43;20.06;69.14
69393;SHT31;56582;44.624;20.378;2022-10-28T13:09:53;20.41;68.41
69393;SHT31;56582;44.624;20.378;2022-10-28T13:26:35;20.04;69.20
69393;SHT31;56582;44.624;20.378;2022-10-28T13:29:05;20.28;68.62
69393;SHT31;56582;44.624;20.378;2022-10-28T13:31:50;20.41;67.77
69393;SHT31;56582;44.624;20.378;2022-10-28T13:34:18;20.18;68.91
69393;SHT31;56582;44.624;20.378;2022-10-28T13:36:56;20.41;67.91
69393;SHT31;56582;44.624;20.378;2022-10-28T13:39:44;20.45;68.24
69393;SHT31;56582;44.624;20.378;2022-10-28T13:44:53;20.49;67.69
69393;SHT31;56582;44.624;20.378;2022-10-28T13:47:26;20.11;68.85
69393;SHT31;56582;44.624;20.378;2022-10-28T13:52:30;20.13;68.83
69393;SHT31;56582;44.624;20.378;2022-10-28T13:54:56;20.09;69.02
69393;SHT31;56582;44.624;20.378;2022-10-28T13:57:34;20.04;68.73
69393;SHT31;56582;44.624;20.378;2022-10-28T14:00:32;20.17;68.82
69393;SHT31;56582;44.624;20.378;2022-10-28T14:02:55;19.90;69.54
69393;SHT31;56582;44.624;20.378;2022-10-28T14:05:48;20.10;69.14
69393;SHT31;56582;44.624;20.378;2022-10-28T14:08:19;20.13;69.07
69393;SHT31;56582;44.624;20.378;2022-10-28T14:13:27;19.86;69.21
69393;SHT31;56582;44.624;20.378;2022-10-28T14:16:32;19.65;70.12
69393;SHT31;56582;44.624;20.378;2022-10-28T14:19:15;19.58;69.90
69393;SHT31;56582;44.624;20.378;2022-10-28T14:21:45;19.94;69.34
69393;SHT31;56582;44.624;20.378;2022-10-28T14:24:34;19.61;70.30
69393;SHT31;56582;44.624;20.378;2022-10-28T14:29:49;19.55;70.54
69393;SHT31;56582;44.624;20.378;2022-10-28T14:35:14;19.39;70.17
69393;SHT31;56582;44.624;20.378;2022-10-28T14:49:24;19.12;71.12
69393;SHT31;56582;44.624;20.378;2022-10-28T14:51:51;19.16;70.88
69393;SHT31;56582;44.624;20.378;2022-10-28T14:54:31;19.14;71.12
69393;SHT31;56582;44.624;20.378;2022-10-28T14:57:02;19.04;71.30
69393;SHT31;56582;44.624;20.378;2022-10-28T14:59:38;19.11;70.96
69393;SHT31;56582;44.624;20.378;2022-10-28T15:02:17;18.76;72.02
69393;SHT31;56582;44.624;20.378;2022-10-28T15:04:45;18.98;71.91
69393;SHT31;56582;44.624;20.378;2022-10-28T15:07:13;18.90;71.95
69393;SHT31;56582;44.624;20.378;2022-10-28T15:09:41;18.77;72.62
69393;SHT31;56582;44.624;20.378;2022-10-28T15:12:10;18.87;72.11
69393;SHT31;56582;44.624;20.378;2022-10-28T15:14:41;18.53;72.93
69393;SHT31;56582;44.624;20.378;2022-10-28T15:17:17;18.19;74.03
69393;SHT31;56582;44.624;20.378;2022-10-28T15:19:45;18.39;73.46
69393;SHT31;56582;44.624;20.378;2022-10-28T15:22:15;18.47;73.50
69393;SHT31;56582;44.624;20.378;2022-10-28T15:24:41;18.61;72.88
69393;SHT31;56582;44.624;20.378;2022-10-28T15:27:10;18.45;73.38
69393;SHT31;56582;44.624;20.378;2022-10-28T15:29:37;18.18;73.89
69393;SHT31;56582;44.624;20.378;2022-10-28T15:34:44;17.94;74.74
69393;SHT31;56582;44.624;20.378;2022-10-28T15:37:15;17.92;74.83
69393;SHT31;56582;44.624;20.378;2022-10-28T15:39:42;18.15;75.17
69393;SHT31;56582;44.624;20.378;2022-10-28T15:44:56;17.77;75.67
69393;SHT31;56582;44.624;20.378;2022-10-28T15:47:30;17.82;75.34
69393;SHT31;56582;44.624;20.378;2022-10-28T15:52:53;17.58;76.19
69393;SHT31;56582;44.624;20.378;2022-10-28T15:57:51;17.67;76.17
69393;SHT31;56582;44.624;20.378;2022-10-28T16:07:56;17.44;77.02
69393;SHT31;56582;44.624;20.378;2022-10-28T16:10:22;17.24;77.55
69393;SHT31;56582;44.624;20.378;2022-10-28T16:12:47;17.19;77.95
69393;SHT31;56582;44.624;20.378;2022-10-28T16:15:13;17.33;78.19
69393;SHT31;56582;44.624;20.378;2022-10-28T16:17:41;17.40;78.44
69393;SHT31;56582;44.624;20.378;2022-10-28T16:20:16;17.13;77.91
69393;SHT31;56582;44.624;20.378;2022-10-28T16:22:43;17.20;79.37
69393;SHT31;56582;44.624;20.378;2022-10-28T16:25:14;17.19;78.20
69393;SHT31;56582;44.624;20.378;2022-10-28T16:27:40;17.26;77.65
69393;SHT31;56582;44.624;20.378;2022-10-28T16:30:06;17.12;78.37
69393;SHT31;56582;44.624;20.378;2022-10-28T16:32:33;17.15;78.77
69393;SHT31;56582;44.624;20.378;2022-10-28T16:35:00;17.18;79.15
69393;SHT31;56582;44.624;20.378;2022-10-28T16:37:29;17.20;77.54
69393;SHT31;56582;44.624;20.378;2022-10-28T16:39:55;17.23;77.50
69393;SHT31;56582;44.624;20.378;2022-10-28T16:42:22;17.13;79.00
69393;SHT31;56582;44.624;20.378;2022-10-28T16:44:48;17.09;78.93
69393;SHT31;56582;44.624;20.378;2022-10-28T16:47:16;17.05;77.62
69393;SHT31;56582;44.624;20.378;2022-10-28T16:49:43;17.16;78.99
69393;SHT31;56582;44.624;20.378;2022-10-28T16:52:23;16.96;78.35
69393;SHT31;56582;44.624;20.378;2022-10-28T16:54:49;17.03;79.93
69393;SHT31;56582;44.624;20.378;2022-10-28T16:57:16;17.03;78.65
69393;SHT31;56582;44.624;20.378;2022-10-28T16:59:42;16.85;78.42
69393;SHT31;56582;44.624;20.378;2022-10-28T17:02:16;16.98;79.75
69393;SHT31;56582;44.624;20.378;2022-10-28T17:04:43;17.10;78.31
69393;SHT31;56582;44.624;20.378;2022-10-28T17:07:08;16.89;79.68
69393;SHT31;56582;44.624;20.378;2022-10-28T17:09:39;16.68;79.49
69393;SHT31;56582;44.624;20.378;2022-10-28T17:12:05;16.62;79.78
69393;SHT31;56582;44.624;20.378;2022-10-28T17:14:30;16.86;79.54
69393;SHT31;56582;44.624;20.378;2022-10-28T17:16:56;16.72;80.01
69393;SHT31;56582;44.624;20.378;2022-10-28T17:19:23;16.58;80.39
69393;SHT31;56582;44.624;20.378;2022-10-28T17:21:48;16.68;80.03
69393;SHT31;56582;44.624;20.378;2022-10-28T17:24:14;16.47;80.84
69393;SHT31;56582;44.624;20.378;2022-10-28T17:26:39;16.54;80.85
69393;SHT31;56582;44.624;20.378;2022-10-28T17:29:05;16.27;81.55
69393;SHT31;56582;44.624;20.378;2022-10-28T17:31:31;16.28;81.65
69393;SHT31;56582;44.624;20.378;2022-10-28T17:33:56;16.09;82.66
69393;SHT31;56582;44.624;20.378;2022-10-28T17:36:22;16.10;82.40
69393;SHT31;56582;44.624;20.378;2022-10-28T17:38:48;16.13;82.77
69393;SHT31;56582;44.624;20.378;2022-10-28T17:41:13;16.12;82.71
69393;SHT31;56582;44.624;20.378;2022-10-28T17:43:41;15.97;82.93
69393;SHT31;56582;44.624;20.378;2022-10-28T17:46:07;16.17;82.69
69393;SHT31;56582;44.624;20.378;2022-10-28T17:48:33;16.27;82.24
69393;SHT31;56582;44.624;20.378;2022-10-28T17:50:58;16.14;82.66
69393;SHT31;56582;44.624;20.378;2022-10-28T17:53:24;16.28;82.29
69393;SHT31;56582;44.624;20.378;2022-10-28T17:55:59;16.24;82.29
69393;SHT31;56582;44.624;20.378;2022-10-28T17:58:25;16.31;82.07
69393;SHT31;56582;44.624;20.378;2022-10-28T18:01:02;16.14;82.62
69393;SHT31;56582;44.624;20.378;2022-10-28T18:03:28;16.10;82.75
69393;SHT31;56582;44.624;20.378;2022-10-28T18:05:54;16.18;82.45
69393;SHT31;56582;44.624;20.378;2022-10-28T18:08:21;16.00;83.07
69393;SHT31;56582;44.624;20.378;2022-10-28T18:10:54;15.96;83.29
69393;SHT31;56582;44.624;20.378;2022-10-28T18:13:32;16.09;83.17
69393;SHT31;56582;44.624;20.378;2022-10-28T18:16:13;16.06;82.83
69393;SHT31;56582;44.624;20.378;2022-10-28T18:18:39;15.86;83.40
69393;SHT31;56582;44.624;20.378;2022-10-28T18:21:05;15.87;83.54
69393;SHT31;56582;44.624;20.378;2022-10-28T18:23:30;15.73;84.23
69393;SHT31;56582;44.624;20.378;2022-10-28T18:25:57;15.76;83.92
69393;SHT31;56582;44.624;20.378;2022-10-28T18:28:23;15.69;83.77
69393;SHT31;56582;44.624;20.378;2022-10-28T18:30:49;15.61;84.07
69393;SHT31;56582;44.624;20.378;2022-10-28T18:33:14;15.61;85.06
69393;SHT31;56582;44.624;20.378;2022-10-28T18:35:39;15.63;84.24